createdAt,value
2019-04-11T00:00:12.541Z,24.40
2019-04-11T00:00:59.644Z,24.30
2019-04-11T00:01:48.047Z,24.30
2019-04-11T00:02:25.303Z,24.30
2019-04-11T00:03:05.043Z,24.30
2019-04-11T00:03:43.921Z,24.30
2019-04-11T00:04:22.772Z,24.20
2019-04-11T00:05:02.341Z,24.20
2019-04-11T00:05:41.616Z,24.20
2019-04-11T00:06:20.235Z,24.20
2019-04-11T00:07:00.178Z,24.10
2019-04-11T00:07:40.469Z,24.20
2019-04-11T00:08:19.668Z,24.20
2019-04-11T00:09:00.682Z,24.20
2019-04-11T00:09:40.877Z,24.30
2019-04-11T00:10:20.770Z,24.50
2019-04-11T00:11:00.024Z,24.60
2019-04-11T00:11:38.744Z,24.80
2019-04-11T00:12:17.336Z,24.90
2019-04-11T00:12:56.916Z,25.00
2019-04-11T00:13:36.538Z,25.20
2019-04-11T00:14:15.926Z,25.30
2019-04-11T00:14:55.988Z,25.40
2019-04-11T00:15:35.123Z,25.50
2019-04-11T00:16:13.819Z,25.60
2019-04-11T00:16:53.348Z,25.60
2019-04-11T00:17:32.562Z,25.70
2019-04-11T00:18:11.769Z,25.80
2019-04-11T00:18:51.386Z,25.90
2019-04-11T00:19:31.555Z,25.90
2019-04-11T00:20:11.815Z,26.00
2019-04-11T00:20:51.031Z,26.00
2019-04-11T00:21:30.922Z,26.10
2019-04-11T00:22:09.525Z,26.10
2019-04-11T00:22:48.221Z,26.10
2019-04-11T00:23:27.755Z,26.20
2019-04-11T00:24:07.074Z,26.20
2019-04-11T00:24:47.133Z,26.20
2019-04-11T00:25:27.359Z,26.30
2019-04-11T00:26:06.587Z,26.30
2019-04-11T00:26:46.505Z,26.30
2019-04-11T00:27:26.673Z,26.30
2019-04-11T00:28:05.766Z,26.40
2019-04-11T00:28:45.728Z,26.40
2019-04-11T00:29:26.034Z,26.40
2019-04-11T00:30:05.907Z,26.40
2019-04-11T00:30:44.696Z,26.50
2019-04-11T00:31:25.070Z,26.50
2019-04-11T00:32:06.501Z,26.50
2019-04-11T00:32:45.535Z,26.50
2019-04-11T00:33:24.928Z,26.50
2019-04-11T00:34:04.640Z,26.60
2019-04-11T00:34:44.864Z,26.60
2019-04-11T00:35:24.175Z,26.60
2019-04-11T00:36:04.110Z,26.60
2019-04-11T00:36:44.263Z,26.60
2019-04-11T00:37:23.473Z,26.60
2019-04-11T00:38:02.594Z,26.60
2019-04-11T00:38:42.316Z,26.60
2019-04-11T00:39:21.594Z,26.60
2019-04-11T00:40:01.760Z,26.60
2019-04-11T00:40:41.544Z,26.70
2019-04-11T00:41:21.732Z,26.70
2019-04-11T00:42:01.942Z,26.70
2019-04-11T00:42:41.261Z,26.70
2019-04-11T00:43:30.867Z,26.70
2019-04-11T00:44:00.813Z,26.70
2019-04-11T00:44:39.480Z,26.70
2019-04-11T00:45:19.522Z,26.70
2019-04-11T00:45:58.370Z,26.70
2019-04-11T00:46:37.367Z,26.80
2019-04-11T00:47:17.160Z,26.80
2019-04-11T00:47:57.433Z,26.80
2019-04-11T00:48:37.655Z,26.80
2019-04-11T00:49:16.587Z,26.80
2019-04-11T00:49:56.787Z,26.80
2019-04-11T00:50:37.137Z,26.80
2019-04-11T00:51:17.650Z,26.80
2019-04-11T00:51:58.227Z,26.80
2019-04-11T00:52:37.445Z,26.80
2019-04-11T00:53:16.444Z,26.80
2019-04-11T00:54:00.468Z,26.90
2019-04-11T00:54:40.612Z,26.90
2019-04-11T00:55:19.618Z,26.90
2019-04-11T00:55:58.370Z,26.90
2019-04-11T00:56:37.552Z,26.90
2019-04-11T00:57:17.093Z,26.90
2019-04-11T00:57:57.008Z,26.90
2019-04-11T00:58:36.103Z,26.90
2019-04-11T00:59:14.746Z,26.90
2019-04-11T00:59:54.330Z,26.90
2019-04-11T01:00:33.632Z,26.90
2019-04-11T01:01:15.819Z,27.00
2019-04-11T01:01:55.416Z,27.00
2019-04-11T01:02:35.688Z,27.00
2019-04-11T01:03:15.390Z,27.00
2019-04-11T01:03:55.692Z,27.00
2019-04-11T01:04:34.998Z,27.00
2019-04-11T01:05:15.041Z,27.00
2019-04-11T01:05:56.597Z,27.00
2019-04-11T01:06:36.421Z,27.00
2019-04-11T01:07:16.542Z,27.00
2019-04-11T01:07:56.742Z,27.10
2019-04-11T01:08:37.784Z,27.10
2019-04-11T01:09:17.994Z,27.10
2019-04-11T01:09:57.116Z,27.10
2019-04-11T01:10:36.334Z,27.10
2019-04-11T01:11:16.138Z,27.10
2019-04-11T01:11:56.322Z,27.10
2019-04-11T01:12:36.576Z,27.10
2019-04-11T01:13:16.054Z,27.10
2019-04-11T01:13:55.462Z,27.10
2019-04-11T01:14:37.101Z,27.10
2019-04-11T01:15:17.538Z,27.10
2019-04-11T01:16:14.832Z,27.10
2019-04-11T01:16:56.932Z,27.10
2019-04-11T01:17:37.099Z,27.10
2019-04-11T01:18:16.391Z,27.10
2019-04-11T01:18:55.792Z,27.20
2019-04-11T01:19:35.196Z,27.20
2019-04-11T01:20:14.050Z,27.20
2019-04-11T01:20:53.631Z,27.20
2019-04-11T01:21:32.814Z,27.20
2019-04-11T01:22:11.591Z,27.20
2019-04-11T01:22:50.802Z,27.20
2019-04-11T01:23:29.819Z,27.20
2019-04-11T01:24:09.293Z,27.20
2019-04-11T01:24:48.891Z,27.20
2019-04-11T01:25:28.473Z,27.20
2019-04-11T01:26:08.639Z,27.20
2019-04-11T01:26:47.715Z,27.20
2019-04-11T01:27:27.071Z,27.20
2019-04-11T01:28:06.797Z,27.20
2019-04-11T01:28:46.979Z,27.20
2019-04-11T01:29:25.803Z,27.30
2019-04-11T01:30:06.132Z,27.30
2019-04-11T01:30:55.503Z,27.30
2019-04-11T01:31:35.794Z,27.30
2019-04-11T01:32:15.935Z,27.30
2019-04-11T01:32:55.184Z,27.30
2019-04-11T01:33:33.858Z,27.30
2019-04-11T01:34:13.058Z,27.30
2019-04-11T01:34:52.895Z,27.30
2019-04-11T01:35:31.546Z,27.30
2019-04-11T01:36:11.201Z,27.30
2019-04-11T01:36:51.317Z,27.30
2019-04-11T01:37:30.066Z,27.30
2019-04-11T01:38:10.379Z,27.30
2019-04-11T01:38:54.688Z,27.30
2019-04-11T01:39:52.369Z,27.30
2019-04-11T01:40:31.885Z,27.40
2019-04-11T01:41:12.069Z,27.40
2019-04-11T01:41:52.999Z,27.40
2019-04-11T01:42:33.368Z,27.40
2019-04-11T01:43:13.486Z,27.40
2019-04-11T01:43:58.864Z,27.40
2019-04-11T01:44:32.659Z,27.40
2019-04-11T01:45:11.616Z,27.40
2019-04-11T01:45:50.231Z,27.40
2019-04-11T01:46:29.830Z,27.40
2019-04-11T01:47:10.817Z,27.40
2019-04-11T01:47:57.701Z,27.40
2019-04-11T01:48:46.258Z,27.40
2019-04-11T01:49:25.488Z,27.40
2019-04-11T01:50:04.908Z,27.40
2019-04-11T01:50:45.261Z,27.40
2019-04-11T01:51:24.000Z,27.40
2019-04-11T01:52:05.016Z,27.40
2019-04-11T01:52:44.581Z,27.40
2019-04-11T01:53:23.368Z,27.40
2019-04-11T01:54:02.067Z,27.40
2019-04-11T01:54:41.289Z,27.40
2019-04-11T01:55:20.674Z,27.40
2019-04-11T01:56:01.000Z,27.40
2019-04-11T01:56:41.165Z,27.50
2019-04-11T01:57:20.749Z,27.50
2019-04-11T01:58:00.572Z,27.50
2019-04-11T01:58:41.104Z,27.50
2019-04-11T01:59:21.514Z,27.50
2019-04-11T02:00:37.344Z,27.50
2019-04-11T02:01:35.101Z,27.50
2019-04-11T02:02:31.154Z,27.50
2019-04-11T02:03:11.789Z,27.50
2019-04-11T02:04:03.702Z,27.50
2019-04-11T02:04:48.115Z,27.50
2019-04-11T02:05:29.964Z,27.50
2019-04-11T02:06:09.745Z,27.50
2019-04-11T02:06:49.954Z,27.50
2019-04-11T02:07:30.907Z,27.50
2019-04-11T02:08:11.274Z,27.50
2019-04-11T02:08:51.372Z,27.60
2019-04-11T02:09:32.365Z,27.60
2019-04-11T02:10:12.671Z,27.60
2019-04-11T02:10:52.853Z,27.60
2019-04-11T02:11:33.850Z,27.60
2019-04-11T02:12:14.185Z,27.60
2019-04-11T02:12:53.355Z,27.60
2019-04-11T02:13:34.113Z,27.60
2019-04-11T02:14:16.533Z,27.60
2019-04-11T02:14:53.987Z,27.60
2019-04-11T02:15:34.470Z,27.60
2019-04-11T02:16:13.951Z,27.60
2019-04-11T02:16:53.729Z,27.60
2019-04-11T02:17:33.371Z,27.70
2019-04-11T02:18:13.103Z,27.70
2019-04-11T02:18:53.963Z,27.70
2019-04-11T02:19:34.437Z,27.70
2019-04-11T02:20:14.548Z,27.70
2019-04-11T02:20:54.324Z,27.70
2019-04-11T02:21:34.243Z,27.70
2019-04-11T02:22:44.148Z,27.70
2019-04-11T02:23:41.447Z,27.70
2019-04-11T02:24:44.884Z,27.70
2019-04-11T02:25:36.554Z,27.70
2019-04-11T02:26:22.984Z,27.70
2019-04-11T02:27:08.499Z,27.70
2019-04-11T02:27:48.375Z,27.70
2019-04-11T02:28:28.713Z,27.70
2019-04-11T02:29:09.515Z,27.70
2019-04-11T02:29:48.846Z,27.70
2019-04-11T02:30:31.275Z,27.80
2019-04-11T02:31:13.858Z,27.80
2019-04-11T02:32:12.360Z,27.80
2019-04-11T02:32:53.617Z,27.80
2019-04-11T02:33:34.845Z,27.80
2019-04-11T02:34:16.012Z,27.80
2019-04-11T02:34:57.176Z,27.80
2019-04-11T02:35:37.320Z,27.80
2019-04-11T02:36:18.689Z,27.80
2019-04-11T02:37:00.447Z,27.80
2019-04-11T02:37:42.712Z,27.80
2019-04-11T02:38:24.229Z,27.80
2019-04-11T02:39:08.074Z,27.80
2019-04-11T02:39:47.297Z,27.80
2019-04-11T02:40:27.679Z,27.90
2019-04-11T02:41:10.570Z,27.90
2019-04-11T02:41:50.769Z,27.90
2019-04-11T02:42:33.020Z,27.80
2019-04-11T02:43:13.871Z,27.90
2019-04-11T02:43:55.163Z,27.90
2019-04-11T02:44:51.047Z,27.90
2019-04-11T02:45:31.171Z,27.90
2019-04-11T02:46:14.246Z,27.90
2019-04-11T02:46:53.266Z,27.90
2019-04-11T02:47:29.644Z,27.90
2019-04-11T02:48:09.321Z,27.90
2019-04-11T02:48:52.283Z,27.90
2019-04-11T02:49:33.084Z,27.90
2019-04-11T02:50:32.031Z,28.00
2019-04-11T02:51:12.362Z,28.00
2019-04-11T02:51:55.699Z,28.00
2019-04-11T02:52:35.535Z,28.00
2019-04-11T02:53:16.808Z,28.00
2019-04-11T02:54:02.080Z,28.00
2019-04-11T02:54:42.964Z,28.00
2019-04-11T02:55:25.144Z,28.00
2019-04-11T02:56:06.318Z,28.00
2019-04-11T02:56:48.853Z,28.00
2019-04-11T02:57:29.834Z,28.00
2019-04-11T02:58:12.413Z,28.00
2019-04-11T02:58:52.242Z,28.00
2019-04-11T02:59:32.481Z,28.00
2019-04-11T03:00:13.259Z,28.00
2019-04-11T03:00:53.668Z,28.00
2019-04-11T03:01:35.858Z,28.00
2019-04-11T03:02:19.271Z,28.00
2019-04-11T03:02:59.215Z,28.00
2019-04-11T03:03:41.679Z,28.10
2019-04-11T03:04:24.518Z,28.10
2019-04-11T03:05:06.985Z,28.10
2019-04-11T03:05:46.782Z,28.10
2019-04-11T03:06:30.963Z,28.10
2019-04-11T03:07:12.148Z,28.10
2019-04-11T03:07:56.246Z,28.10
2019-04-11T03:08:38.806Z,28.10
2019-04-11T03:09:21.971Z,28.10
2019-04-11T03:10:02.948Z,28.10
2019-04-11T03:10:45.498Z,28.10
2019-04-11T03:11:27.439Z,28.10
2019-04-11T03:12:07.439Z,28.10
2019-04-11T03:12:48.498Z,28.10
2019-04-11T03:13:33.181Z,28.10
2019-04-11T03:14:14.141Z,28.10
2019-04-11T03:15:09.321Z,28.10
2019-04-11T03:15:56.685Z,28.10
2019-04-11T03:16:34.018Z,28.10
2019-04-11T03:17:14.135Z,28.10
2019-04-11T03:17:47.857Z,28.20
2019-04-11T03:18:45.865Z,28.20
2019-04-11T03:19:24.025Z,28.20
2019-04-11T03:20:03.598Z,28.20
2019-04-11T03:20:38.320Z,28.20
2019-04-11T03:21:16.441Z,28.20
2019-04-11T03:21:54.499Z,28.20
2019-04-11T03:22:58.218Z,28.20
2019-04-11T03:23:37.463Z,28.20
2019-04-11T03:24:18.474Z,28.50
2019-04-11T03:25:00.356Z,28.60
2019-04-11T03:25:42.623Z,28.70
2019-04-11T03:26:22.701Z,28.70
2019-04-11T03:27:04.788Z,28.70
2019-04-11T03:27:49.419Z,28.80
2019-04-11T03:28:31.257Z,28.80
2019-04-11T03:29:12.866Z,28.90
2019-04-11T03:29:56.003Z,28.80
2019-04-11T03:31:30.365Z,28.80
2019-04-11T03:32:24.591Z,28.90
2019-04-11T03:33:15.085Z,28.90
2019-04-11T03:33:55.335Z,28.90
2019-04-11T03:34:25.245Z,28.90
2019-04-11T03:35:09.260Z,28.90
2019-04-11T03:36:10.801Z,28.80
2019-04-11T03:36:37.568Z,28.80
2019-04-11T03:37:40.082Z,28.70
2019-04-11T03:38:21.250Z,28.70
2019-04-11T03:38:53.685Z,28.70
2019-04-11T03:39:39.518Z,28.60
2019-04-11T03:40:19.138Z,28.60
2019-04-11T03:40:57.078Z,28.60
2019-04-11T03:41:32.019Z,28.60
2019-04-11T03:42:17.189Z,28.60
2019-04-11T03:42:59.944Z,28.60
2019-04-11T03:43:36.540Z,28.60
2019-04-11T03:44:15.934Z,28.60
2019-04-11T03:44:54.870Z,28.60
2019-04-11T03:45:51.331Z,28.50
2019-04-11T03:46:25.062Z,28.60
2019-04-11T03:47:11.196Z,28.50
2019-04-11T03:47:51.792Z,28.60
2019-04-11T03:48:33.369Z,28.60
2019-04-11T03:49:12.786Z,28.50
2019-04-11T03:49:50.432Z,28.50
2019-04-11T03:50:26.052Z,28.50
2019-04-11T03:51:04.481Z,28.60
2019-04-11T03:51:45.394Z,28.60
2019-04-11T03:52:25.839Z,28.60
2019-04-11T03:53:08.219Z,28.60
2019-04-11T03:53:47.221Z,28.60
2019-04-11T03:54:29.339Z,28.60
2019-04-11T03:55:08.991Z,28.60
2019-04-11T03:55:49.763Z,28.60
2019-04-11T03:56:29.332Z,28.60
2019-04-11T03:57:09.564Z,28.60
2019-04-11T03:57:49.178Z,28.60
2019-04-11T03:58:31.084Z,28.60
2019-04-11T03:59:13.688Z,28.60
2019-04-11T03:59:51.940Z,28.60
2019-04-11T04:00:36.001Z,28.60
2019-04-11T04:01:11.759Z,28.60
2019-04-11T04:01:51.194Z,28.60
2019-04-11T04:02:32.612Z,28.60
2019-04-11T04:03:13.426Z,28.60
2019-04-11T04:03:53.475Z,28.60
2019-04-11T04:04:32.850Z,28.60
2019-04-11T04:05:13.203Z,28.70
2019-04-11T04:05:52.879Z,28.70
2019-04-11T04:06:33.036Z,28.70
2019-04-11T04:07:13.134Z,28.60
2019-04-11T04:07:52.609Z,28.70
2019-04-11T04:08:31.952Z,28.70
2019-04-11T04:09:13.107Z,28.70
2019-04-11T04:09:53.707Z,28.70
2019-04-11T04:10:34.036Z,28.70
2019-04-11T04:11:27.049Z,28.70
2019-04-11T04:12:07.088Z,28.70
2019-04-11T04:12:47.340Z,28.70
2019-04-11T04:13:29.384Z,28.70
2019-04-11T04:14:26.236Z,28.70
2019-04-11T04:15:37.099Z,28.70
2019-04-11T04:16:26.057Z,28.70
2019-04-11T04:17:11.544Z,28.70
2019-04-11T04:18:10.047Z,28.70
2019-04-11T04:19:01.094Z,28.70
2019-04-11T04:20:02.295Z,28.80
2019-04-11T04:20:53.002Z,28.80
2019-04-11T04:21:47.148Z,28.80
2019-04-11T04:22:35.476Z,28.80
2019-04-11T04:23:21.680Z,28.80
2019-04-11T04:24:03.628Z,28.80
2019-04-11T04:24:44.312Z,28.80
2019-04-11T04:25:24.121Z,28.80
2019-04-11T04:26:05.507Z,28.80
2019-04-11T04:26:44.011Z,28.80
2019-04-11T04:27:25.461Z,28.90
2019-04-11T04:28:05.402Z,28.90
2019-04-11T04:28:45.236Z,28.90
2019-04-11T04:29:25.299Z,28.90
2019-04-11T04:30:05.909Z,28.80
2019-04-11T04:30:47.034Z,28.90
2019-04-11T04:31:26.748Z,28.90
2019-04-11T04:32:07.709Z,28.90
2019-04-11T04:32:47.137Z,28.90
2019-04-11T04:33:28.785Z,28.90
2019-04-11T04:34:09.360Z,28.90
2019-04-11T04:34:50.634Z,28.90
2019-04-11T04:35:31.531Z,28.90
2019-04-11T04:36:13.892Z,28.90
2019-04-11T04:36:53.735Z,28.90
2019-04-11T04:37:34.659Z,28.90
2019-04-11T04:38:15.597Z,29.00
2019-04-11T04:38:56.915Z,28.90
2019-04-11T04:39:36.978Z,28.90
2019-04-11T04:40:31.585Z,28.90
2019-04-11T04:41:09.980Z,29.00
2019-04-11T04:41:45.823Z,29.00
2019-04-11T04:42:27.407Z,29.00
2019-04-11T04:43:01.206Z,29.00
2019-04-11T04:43:41.327Z,29.00
2019-04-11T04:44:22.896Z,29.00
2019-04-11T04:45:02.779Z,29.00
2019-04-11T04:45:58.161Z,29.00
2019-04-11T04:46:36.603Z,29.00
2019-04-11T04:47:13.651Z,29.00
2019-04-11T04:47:48.954Z,29.00
2019-04-11T04:48:26.740Z,29.00
2019-04-11T04:49:04.920Z,29.10
2019-04-11T04:49:45.878Z,29.00
2019-04-11T04:50:26.643Z,29.00
2019-04-11T04:51:09.186Z,29.00
2019-04-11T04:51:47.647Z,29.10
2019-04-11T04:52:28.065Z,29.00
2019-04-11T04:53:09.126Z,29.10
2019-04-11T04:53:49.920Z,29.10
2019-04-11T04:54:30.720Z,29.10
2019-04-11T04:55:10.667Z,29.10
2019-04-11T04:55:50.652Z,29.10
2019-04-11T04:56:32.373Z,29.10
2019-04-11T04:57:13.155Z,29.10
2019-04-11T04:57:53.375Z,29.10
2019-04-11T04:58:33.919Z,29.10
2019-04-11T04:59:14.615Z,29.10
2019-04-11T04:59:55.515Z,29.10
2019-04-11T05:00:35.382Z,29.10
2019-04-11T05:01:16.774Z,29.10
2019-04-11T05:01:56.065Z,29.10
2019-04-11T05:02:37.413Z,29.10
2019-04-11T05:03:17.748Z,29.10
2019-04-11T05:03:58.276Z,29.20
2019-04-11T05:04:38.303Z,29.20
2019-04-11T05:05:19.624Z,29.20
2019-04-11T05:06:00.821Z,29.20
2019-04-11T05:06:40.866Z,29.20
2019-04-11T05:07:20.242Z,29.20
2019-04-11T05:08:00.637Z,29.20
2019-04-11T05:08:41.154Z,29.20
2019-04-11T05:09:21.325Z,29.20
2019-04-11T05:10:01.006Z,29.20
2019-04-11T05:10:41.322Z,29.20
2019-04-11T05:11:20.392Z,29.20
2019-04-11T05:12:01.269Z,29.20
2019-04-11T05:12:39.890Z,29.30
2019-04-11T05:13:19.568Z,29.20
2019-04-11T05:14:00.731Z,29.30
2019-04-11T05:14:40.149Z,29.30
2019-04-11T05:15:20.847Z,29.30
2019-04-11T05:16:08.544Z,29.30
2019-04-11T05:16:41.806Z,29.30
2019-04-11T05:17:20.958Z,29.30
2019-04-11T05:18:01.966Z,29.30
2019-04-11T05:18:41.993Z,29.30
2019-04-11T05:19:22.564Z,29.30
2019-04-11T05:20:03.110Z,29.30
2019-04-11T05:20:44.124Z,29.30
2019-04-11T05:21:25.425Z,29.30
2019-04-11T05:22:06.498Z,29.30
2019-04-11T05:22:47.228Z,29.30
2019-04-11T05:23:27.659Z,29.30
2019-04-11T05:24:07.543Z,29.30
2019-04-11T05:24:47.506Z,29.30
2019-04-11T05:25:28.564Z,29.40
2019-04-11T05:26:08.868Z,29.30
2019-04-11T05:26:48.126Z,29.40
2019-04-11T05:27:27.578Z,29.30
2019-04-11T05:28:09.821Z,29.40
2019-04-11T05:28:49.060Z,29.40
2019-04-11T05:29:29.253Z,29.40
2019-04-11T05:30:09.369Z,29.40
2019-04-11T05:30:49.090Z,29.40
2019-04-11T05:31:28.467Z,29.40
2019-04-11T05:32:09.274Z,29.40
2019-04-11T05:32:49.341Z,29.40
2019-04-11T05:33:29.410Z,29.40
2019-04-11T05:34:08.545Z,29.40
2019-04-11T05:34:48.999Z,29.40
2019-04-11T05:35:28.345Z,29.40
2019-04-11T05:36:08.155Z,29.40
2019-04-11T05:36:47.725Z,29.40
2019-04-11T05:37:27.327Z,29.40
2019-04-11T05:38:06.844Z,29.40
2019-04-11T05:38:46.572Z,29.40
2019-04-11T05:39:26.075Z,29.40
2019-04-11T05:40:07.207Z,29.40
2019-04-11T05:40:48.238Z,29.40
2019-04-11T05:41:29.306Z,29.40
2019-04-11T05:42:09.199Z,29.40
2019-04-11T05:42:53.432Z,29.40
2019-04-11T05:43:31.729Z,29.50
2019-04-11T05:44:10.880Z,29.50
2019-04-11T05:44:50.101Z,29.50
2019-04-11T05:45:30.326Z,29.50
2019-04-11T05:46:25.103Z,29.50
2019-04-11T05:46:55.786Z,29.50
2019-04-11T05:47:31.618Z,29.50
2019-04-11T05:48:15.626Z,29.50
2019-04-11T05:49:16.915Z,29.50
2019-04-11T05:50:12.972Z,29.50
2019-04-11T05:50:51.653Z,29.50
2019-04-11T05:51:37.018Z,29.50
2019-04-11T05:52:12.180Z,29.50
2019-04-11T05:52:52.391Z,29.60
2019-04-11T05:53:33.542Z,29.60
2019-04-11T05:54:12.227Z,29.60
2019-04-11T05:54:54.478Z,29.60
2019-04-11T05:55:41.371Z,29.60
2019-04-11T05:56:21.718Z,29.60
2019-04-11T05:57:03.241Z,29.60
2019-04-11T05:57:47.071Z,29.60
2019-04-11T05:59:18.892Z,29.60
2019-04-11T05:59:59.202Z,29.60
2019-04-11T06:01:03.433Z,29.60
2019-04-11T06:01:46.986Z,29.60
2019-04-11T06:02:47.351Z,29.60
2019-04-11T06:03:28.294Z,29.60
2019-04-11T06:04:15.258Z,29.60
2019-04-11T06:04:57.912Z,29.60
2019-04-11T06:05:44.723Z,29.70
2019-04-11T06:06:40.159Z,29.60
2019-04-11T06:07:41.001Z,29.70
2019-04-11T06:08:25.258Z,29.70
2019-04-11T06:09:03.963Z,29.70
2019-04-11T06:09:46.158Z,29.70
2019-04-11T06:10:30.831Z,29.70
2019-04-11T06:11:28.528Z,29.70
2019-04-11T06:12:27.487Z,29.70
2019-04-11T06:13:16.556Z,29.70
2019-04-11T06:14:15.213Z,29.70
2019-04-11T06:15:05.886Z,29.70
2019-04-11T06:15:47.223Z,29.70
2019-04-11T06:16:36.925Z,29.70
2019-04-11T06:17:11.419Z,29.70
2019-04-11T06:17:51.236Z,29.70
2019-04-11T06:19:06.274Z,29.70
2019-04-11T06:20:12.721Z,29.70
2019-04-11T06:20:53.636Z,29.70
2019-04-11T06:21:36.916Z,29.70
2019-04-11T06:22:16.931Z,29.70
2019-04-11T06:23:07.486Z,29.70
2019-04-11T06:24:07.746Z,29.70
2019-04-11T06:25:19.320Z,29.80
2019-04-11T06:26:25.245Z,29.80
2019-04-11T06:27:26.322Z,29.80
2019-04-11T06:28:15.904Z,29.80
2019-04-11T06:28:59.106Z,29.80
2019-04-11T06:29:57.041Z,29.80
2019-04-11T06:30:50.714Z,29.80
2019-04-11T06:32:13.835Z,29.80
2019-04-11T06:33:10.494Z,29.80
2019-04-11T06:34:09.170Z,29.80
2019-04-11T06:34:55.585Z,29.80
2019-04-11T06:35:52.439Z,29.80
2019-04-11T06:36:50.102Z,29.80
2019-04-11T06:38:02.730Z,29.80
2019-04-11T06:39:15.968Z,29.90
2019-04-11T06:40:09.939Z,29.80
2019-04-11T06:40:57.746Z,29.90
2019-04-11T06:41:48.566Z,29.90
2019-04-11T06:42:39.813Z,29.90
2019-04-11T06:43:34.184Z,29.90
2019-04-11T06:44:28.023Z,29.90
2019-04-11T06:45:21.710Z,29.90
2019-04-11T06:46:18.743Z,29.90
2019-04-11T06:47:20.968Z,29.90
2019-04-11T06:48:18.486Z,29.90
2019-04-11T06:49:16.533Z,29.90
2019-04-11T06:50:02.802Z,29.90
2019-04-11T06:50:57.659Z,29.90
2019-04-11T06:51:41.190Z,29.90
2019-04-11T06:52:20.944Z,29.90
2019-04-11T06:53:02.257Z,29.90
2019-04-11T06:54:09.915Z,30.00
2019-04-11T06:55:06.609Z,30.00
2019-04-11T06:56:16.845Z,30.00
2019-04-11T06:56:57.690Z,30.00
2019-04-11T06:57:38.228Z,30.00
2019-04-11T06:58:22.115Z,30.00
2019-04-11T06:59:16.338Z,30.00
2019-04-11T06:59:56.671Z,30.00
2019-04-11T07:00:37.170Z,30.00
2019-04-11T07:01:26.326Z,30.00
2019-04-11T07:02:18.127Z,30.00
2019-04-11T07:02:59.295Z,30.00
2019-04-11T07:03:45.000Z,30.00
2019-04-11T07:04:31.788Z,30.00
2019-04-11T07:05:11.824Z,30.00
2019-04-11T07:05:51.764Z,30.00
2019-04-11T07:06:35.653Z,30.00
2019-04-11T07:07:16.084Z,30.00
2019-04-11T07:07:55.982Z,30.10
2019-04-11T07:08:42.663Z,30.10
2019-04-11T07:09:41.331Z,30.10
2019-04-11T07:10:26.414Z,30.10
2019-04-11T07:11:09.443Z,30.10
2019-04-11T07:11:59.257Z,30.10
2019-04-11T07:12:42.771Z,30.10
2019-04-11T07:13:32.872Z,30.10
2019-04-11T07:14:34.058Z,30.10
2019-04-11T07:15:16.235Z,30.10
2019-04-11T07:15:58.323Z,30.10
2019-04-11T07:16:38.354Z,30.10
2019-04-11T07:17:34.294Z,30.10
2019-04-11T07:18:31.213Z,30.10
2019-04-11T07:19:41.531Z,30.10
2019-04-11T07:20:37.864Z,30.10
2019-04-11T07:21:17.457Z,30.10
2019-04-11T07:21:58.150Z,30.10
2019-04-11T07:22:55.231Z,30.10
2019-04-11T07:23:57.593Z,30.20
2019-04-11T07:25:04.138Z,30.10
2019-04-11T07:25:55.892Z,30.10
2019-04-11T07:26:41.586Z,30.10
2019-04-11T07:27:21.693Z,30.10
2019-04-11T07:28:07.861Z,30.20
2019-04-11T07:29:06.507Z,30.20
2019-04-11T07:30:03.423Z,30.20
2019-04-11T07:31:02.326Z,30.20
2019-04-11T07:32:13.429Z,30.20
2019-04-11T07:33:02.186Z,30.20
2019-04-11T07:33:59.119Z,30.20
2019-04-11T07:34:54.680Z,30.20
2019-04-11T07:35:55.217Z,30.20
2019-04-11T07:36:51.556Z,30.20
2019-04-11T07:37:53.137Z,30.20
2019-04-11T07:38:41.077Z,30.20
2019-04-11T07:39:44.475Z,30.20
2019-04-11T07:40:39.502Z,30.20
2019-04-11T07:41:41.687Z,30.20
2019-04-11T07:42:49.631Z,30.20
2019-04-11T07:43:41.226Z,30.20
2019-04-11T07:44:21.825Z,30.20
2019-04-11T07:45:06.520Z,30.20
2019-04-11T07:46:12.671Z,30.30
2019-04-11T07:47:17.132Z,30.30
2019-04-11T07:47:56.751Z,30.30
2019-04-11T07:48:40.425Z,30.30
2019-04-11T07:49:24.363Z,30.30
2019-04-11T07:50:05.756Z,30.30
2019-04-11T07:50:46.522Z,30.30
2019-04-11T07:51:32.475Z,30.30
2019-04-11T07:52:15.482Z,30.30
2019-04-11T07:53:03.074Z,30.30
2019-04-11T07:53:48.061Z,30.30
2019-04-11T07:54:30.454Z,30.30
2019-04-11T07:55:14.193Z,30.30
2019-04-11T07:55:55.328Z,30.30
2019-04-11T07:56:57.536Z,30.30
2019-04-11T07:57:46.791Z,30.30
2019-04-11T07:58:35.255Z,30.30
2019-04-11T07:59:25.012Z,30.30
2019-04-11T08:00:34.960Z,30.30
2019-04-11T08:01:30.496Z,30.30
2019-04-11T08:02:34.137Z,30.30
2019-04-11T08:03:33.317Z,30.40
2019-04-11T08:04:29.964Z,30.30
2019-04-11T08:05:27.933Z,30.30
2019-04-11T08:06:15.461Z,30.40
2019-04-11T08:07:13.800Z,30.40
2019-04-11T08:08:13.485Z,30.40
2019-04-11T08:09:09.673Z,30.40
2019-04-11T08:09:58.735Z,30.40
2019-04-11T08:10:46.936Z,30.40
2019-04-11T08:11:40.054Z,30.40
2019-04-11T08:12:25.654Z,30.40
2019-04-11T08:13:08.843Z,30.40
2019-04-11T08:14:12.556Z,30.40
2019-04-11T08:15:09.015Z,30.40
2019-04-11T08:16:06.379Z,30.40
2019-04-11T08:17:03.784Z,30.40
2019-04-11T08:17:45.909Z,30.40
2019-04-11T08:18:36.904Z,30.40
2019-04-11T08:19:35.097Z,30.40
2019-04-11T08:20:33.133Z,30.40
2019-04-11T08:21:35.683Z,30.40
2019-04-11T08:22:33.295Z,30.40
2019-04-11T08:23:13.717Z,30.40
2019-04-11T08:23:56.152Z,30.40
2019-04-11T08:24:41.106Z,30.40
2019-04-11T08:25:37.607Z,30.40
2019-04-11T08:26:35.846Z,30.40
2019-04-11T08:27:33.769Z,30.40
2019-04-11T08:28:14.664Z,30.40
2019-04-11T08:29:01.386Z,30.40
2019-04-11T08:29:34.343Z,30.50
2019-04-11T08:30:14.841Z,30.40
2019-04-11T08:31:28.837Z,30.40
2019-04-11T08:32:27.706Z,30.40
2019-04-11T08:33:09.106Z,30.50
2019-04-11T08:33:49.076Z,30.40
2019-04-11T08:34:32.529Z,30.50
2019-04-11T08:35:28.850Z,30.50
2019-04-11T08:36:35.540Z,30.50
2019-04-11T08:37:31.626Z,30.50
2019-04-11T08:38:12.054Z,30.50
2019-04-11T08:38:52.929Z,30.50
2019-04-11T08:39:39.798Z,30.50
2019-04-11T08:40:19.851Z,30.50
2019-04-11T08:41:25.303Z,30.50
2019-04-11T08:42:21.279Z,30.50
2019-04-11T08:43:19.814Z,30.50
2019-04-11T08:43:59.587Z,30.50
2019-04-11T08:44:41.873Z,30.50
2019-04-11T08:45:21.592Z,30.50
2019-04-11T08:46:08.805Z,30.50
2019-04-11T08:46:51.280Z,30.50
2019-04-11T08:47:45.335Z,30.50
2019-04-11T08:48:17.180Z,30.50
2019-04-11T08:48:59.429Z,30.50
2019-04-11T08:49:45.828Z,30.50
2019-04-11T08:50:30.326Z,30.50
2019-04-11T08:51:11.430Z,30.50
2019-04-11T08:51:51.659Z,30.50
2019-04-11T08:52:43.061Z,30.60
2019-04-11T08:53:53.298Z,30.50
2019-04-11T08:54:54.008Z,30.50
2019-04-11T08:55:55.831Z,30.60
2019-04-11T08:56:32.067Z,30.60
2019-04-11T08:57:11.790Z,30.60
2019-04-11T08:58:12.080Z,30.60
2019-04-11T08:59:33.437Z,30.60
2019-04-11T09:00:26.625Z,30.60
2019-04-11T09:01:07.467Z,30.60
2019-04-11T09:01:47.215Z,30.60
2019-04-11T09:02:35.811Z,30.60
2019-04-11T09:03:33.467Z,30.60
2019-04-11T09:04:30.535Z,30.60
2019-04-11T09:05:42.979Z,30.60
2019-04-11T09:06:25.774Z,30.60
2019-04-11T09:07:05.435Z,30.60
2019-04-11T09:07:52.052Z,30.60
2019-04-11T09:08:50.965Z,30.60
2019-04-11T09:09:53.554Z,30.60
2019-04-11T09:10:50.646Z,30.60
2019-04-11T09:11:36.059Z,30.60
2019-04-11T09:12:16.257Z,30.60
2019-04-11T09:13:17.396Z,30.60
2019-04-11T09:14:26.300Z,30.60
2019-04-11T09:15:43.257Z,30.60
2019-04-11T09:16:43.801Z,30.60
2019-04-11T09:17:55.135Z,30.60
2019-04-11T09:18:25.988Z,30.60
2019-04-11T09:19:11.107Z,30.70
2019-04-11T09:20:09.419Z,30.60
2019-04-11T09:21:05.630Z,30.60
2019-04-11T09:22:01.584Z,30.70
2019-04-11T09:22:49.030Z,30.70
2019-04-11T09:23:30.026Z,30.70
2019-04-11T09:24:43.107Z,30.70
2019-04-11T09:25:45.416Z,30.70
2019-04-11T09:26:47.812Z,30.70
2019-04-11T09:27:44.753Z,30.70
2019-04-11T09:28:41.731Z,30.70
2019-04-11T09:29:23.888Z,30.70
2019-04-11T09:30:09.484Z,30.70
2019-04-11T09:31:15.401Z,30.70
2019-04-11T09:32:31.956Z,30.70
2019-04-11T09:33:31.002Z,30.70
2019-04-11T09:34:35.569Z,30.70
2019-04-11T09:35:31.136Z,30.70
2019-04-11T09:36:30.288Z,30.70
2019-04-11T09:37:27.524Z,30.70
2019-04-11T09:38:08.379Z,30.70
2019-04-11T09:38:48.654Z,30.70
2019-04-11T09:39:55.230Z,30.70
2019-04-11T09:40:57.232Z,30.70